Time;durP1;ratioP1;P1;durP2;ratioP2;P2;SDS_P1;SDS_P2;PMS_P1;PMS_P2;Temp;Humidity;BMP_temperature;BMP_pressure;BME280_temperature;BME280_humidity;BME280_pressure;Samples;Min_cycle;Max_cycle;Signal;HPM_P1;HPM_P2
2022/03/07 00:00:39;;;;;;;4.40;0.70;;;20.50;75.30;;;;;;4960531;28;96112;-68
2022/03/07 00:03:09;;;;;;;3.55;0.30;;;20.50;75.40;;;;;;4968824;28;95760;-68
2022/03/07 00:05:39;;;;;;;0.38;0.38;;;20.70;75.40;;;;;;4968667;28;95521;-66
2022/03/07 00:08:10;;;;;;;0.35;0.30;;;20.70;75.20;;;;;;4965974;28;96003;-67
2022/03/07 00:11:02;;;;;;;2.75;0.30;;;20.80;75.40;;;;;;4968486;28;96122;-69
2022/03/07 00:13:33;;;;;;;0.82;0.50;;;20.90;75.30;;;;;;4966740;28;96196;-69
2022/03/07 00:16:05;;;;;;;1.75;0.40;;;21.00;75.20;;;;;;4960617;28;96174;-68
2022/03/07 00:18:36;;;;;;;1.17;0.40;;;21.00;75.20;;;;;;4981872;28;97188;-68
2022/03/07 00:21:08;;;;;;;1.02;0.55;;;21.10;75.10;;;;;;4968030;28;95954;-68
2022/03/07 00:23:39;;;;;;;0.55;0.20;;;21.10;75.10;;;;;;4968913;28;96178;-63
2022/03/07 00:26:11;;;;;;;0.32;0.30;;;21.20;75.00;;;;;;4969292;28;95656;-69
2022/03/07 00:28:42;;;;;;;;;;;21.30;74.80;;;;;;4963570;28;96702;-65
2022/03/07 00:31:12;;;;;;;0.85;0.68;;;21.30;74.80;;;;;;4952531;28;96067;-68
2022/03/07 00:33:43;;;;;;;2.63;0.50;;;21.40;74.80;;;;;;4953373;28;96068;-70
2022/03/07 00:36:17;;;;;;;0.20;0.20;;;21.40;74.60;;;;;;4968594;28;95871;-66
2022/03/07 00:38:48;;;;;;;0.63;0.30;;;21.50;74.60;;;;;;4967264;28;96436;-66
2022/03/07 00:41:19;;;;;;;0.95;0.40;;;21.60;74.70;;;;;;4998613;28;95872;-67
2022/03/07 00:43:49;;;;;;;0.57;0.28;;;21.60;74.60;;;;;;4967929;28;95870;-62
2022/03/07 00:46:20;;;;;;;0.85;0.57;;;21.70;74.60;;;;;;4961173;28;95465;-66
2022/03/07 00:48:52;;;;;;;0.30;0.30;;;21.70;74.40;;;;;;4967533;28;95880;-68
2022/03/07 00:51:25;;;;;;;2.15;0.38;;;21.80;74.30;;;;;;4983404;28;96029;-64
2022/03/07 00:53:56;;;;;;;0.40;0.40;;;21.90;74.30;;;;;;4966946;28;95985;-64
2022/03/07 00:56:25;;;;;;;0.43;0.20;;;21.90;74.10;;;;;;4999606;28;95911;-64
2022/03/07 00:58:56;;;;;;;0.22;0.22;;;22.00;74.20;;;;;;4982459;28;99338;-63
2022/03/07 01:01:27;;;;;;;0.17;0.15;;;22.00;74.10;;;;;;4974246;28;97344;-66
2022/03/07 01:03:57;;;;;;;0.30;0.30;;;22.10;74.10;;;;;;4997947;28;96160;-66
2022/03/07 01:06:27;;;;;;;1.30;0.30;;;22.10;73.90;;;;;;4998608;28;95991;-66
2022/03/07 01:08:58;;;;;;;;;;;22.20;73.90;;;;;;4967940;28;95897;-65
2022/03/07 01:11:30;;;;;;;0.30;0.30;;;22.20;74.00;;;;;;4999455;28;98013;-63
2022/03/07 01:14:01;;;;;;;0.20;0.20;;;22.30;70.00;;;;;;4963757;28;96835;-63
2022/03/07 01:16:33;;;;;;;1.40;0.38;;;22.30;73.90;;;;;;4956996;28;98754;-63
2022/03/07 01:19:05;;;;;;;0.40;0.30;;;22.40;74.40;;;;;;4967240;28;95934;-64
2022/03/07 01:21:35;;;;;;;0.20;0.20;;;22.40;73.80;;;;;;4963075;28;97597;-63
2022/03/07 01:24:07;;;;;;;0.27;0.27;;;22.50;73.80;;;;;;4966721;28;95748;-64
2022/03/07 01:26:38;;;;;;;1.10;0.28;;;22.60;73.80;;;;;;4982302;28;95410;-65
2022/03/07 01:29:09;;;;;;;1.60;0.70;;;22.60;73.70;;;;;;4959163;28;97628;-63
2022/03/07 01:31:40;;;;;;;1.98;0.70;;;22.60;73.60;;;;;;4952184;28;96085;-68
2022/03/07 01:34:10;;;;;;;;;;;22.70;74.20;;;;;;4956279;28;95978;-68
2022/03/07 01:36:42;;;;;;;;;;;22.60;72.40;;;;;;4968943;28;95824;-68
2022/03/07 01:39:13;;;;;;;1.57;0.50;;;22.60;72.50;;;;;;4967646;28;96794;-68
2022/03/07 01:41:44;;;;;;;0.68;0.68;;;22.50;72.60;;;;;;4966971;28;98458;-68
2022/03/07 01:44:27;;;;;;;0.50;0.32;;;22.50;72.60;;;;;;4967892;28;95741;-67
2022/03/07 01:46:59;;;;;;;0.40;0.40;;;22.40;73.40;;;;;;4946880;28;95936;-69
2022/03/07 01:49:29;;;;;;;1.77;0.45;;;22.40;72.70;;;;;;4951802;28;98228;-69
2022/03/07 01:52:00;;;;;;;;;;;22.40;72.70;;;;;;4947967;28;97237;-68
2022/03/07 01:54:33;;;;;;;0.85;0.43;;;22.50;72.70;;;;;;4962328;28;95994;-70
2022/03/07 01:57:03;;;;;;;1.00;0.50;;;22.50;72.80;;;;;;4963374;28;95701;-68
2022/03/07 01:59:37;;;;;;;0.93;0.68;;;22.40;72.70;;;;;;4945722;28;96769;-70
2022/03/07 02:02:07;;;;;;;0.90;0.45;;;22.50;73.40;;;;;;4954751;28;97423;-68
2022/03/07 02:04:41;;;;;;;0.85;0.75;;;22.50;72.80;;;;;;4998575;28;95855;-69
2022/03/07 02:07:13;;;;;;;0.73;0.68;;;22.50;72.70;;;;;;4993867;28;95592;-67
2022/03/07 02:09:45;;;;;;;1.67;0.75;;;22.50;72.80;;;;;;4980443;28;98361;-66
2022/03/07 02:12:16;;;;;;;0.60;0.60;;;22.60;68.70;;;;;;4988171;28;97328;-67
2022/03/07 02:14:47;;;;;;;0.50;0.50;;;22.60;72.90;;;;;;4966963;28;95818;-70
2022/03/07 02:17:18;;;;;;;1.00;0.70;;;22.60;73.10;;;;;;4956918;28;97847;-69
2022/03/07 02:19:50;;;;;;;0.88;0.60;;;22.70;73.20;;;;;;4980082;28;97226;-70
2022/03/07 02:22:21;;;;;;;1.25;0.63;;;22.70;73.10;;;;;;4982438;28;96378;-64
2022/03/07 02:24:53;;;;;;;2.35;0.82;;;22.80;73.20;;;;;;4982645;28;95512;-63
2022/03/07 02:27:26;;;;;;;4.63;0.88;;;22.80;73.20;;;;;;4980910;28;96530;-68
2022/03/07 02:29:58;;;;;;;1.52;1.00;;;22.80;73.30;;;;;;4956808;28;95864;-69
2022/03/07 02:32:31;;;;;;;4.57;1.20;;;22.90;73.20;;;;;;4963112;28;102169;-71
2022/03/07 02:35:05;;;;;;;2.63;1.40;;;22.90;73.50;;;;;;4997914;28;95862;-65
2022/03/07 02:37:36;;;;;;;2.05;0.90;;;22.90;73.70;;;;;;4966668;28;95718;-66
2022/03/07 02:40:08;;;;;;;4.47;0.88;;;23.00;73.50;;;;;;4966239;28;96442;-65
2022/03/07 02:42:48;;;;;;;0.75;0.70;;;23.10;73.60;;;;;;4979652;28;96607;-65
2022/03/07 02:45:19;;;;;;;1.15;0.80;;;23.10;73.50;;;;;;4963716;28;95360;-59
2022/03/07 02:47:50;;;;;;;2.30;0.95;;;23.20;73.60;;;;;;4981678;28;96056;-63
2022/03/07 02:50:21;;;;;;;3.38;0.93;;;23.30;73.50;;;;;;4981934;28;98290;-63
2022/03/07 02:52:52;;;;;;;1.90;0.88;;;23.40;74.10;;;;;;4952614;28;96464;-63
2022/03/07 02:55:22;;;;;;;0.70;0.70;;;23.60;73.90;;;;;;4967271;28;95523;-62
2022/03/07 02:57:52;;;;;;;4.43;1.07;;;23.80;73.60;;;;;;4966541;28;95916;-63
2022/03/07 03:00:23;;;;;;;3.27;1.10;;;23.90;73.20;;;;;;4955416;28;96695;-66
2022/03/07 03:02:53;;;;;;;1.03;0.90;;;23.90;72.90;;;;;;4963994;28;96113;-65
2022/03/07 03:05:26;;;;;;;4.10;1.08;;;24.00;72.60;;;;;;4963835;28;95744;-63
2022/03/07 03:07:57;;;;;;;1.05;0.88;;;24.00;72.40;;;;;;4965765;28;95716;-65
2022/03/07 03:10:27;;;;;;;1.77;0.80;;;24.10;72.80;;;;;;4961305;28;96672;-66
2022/03/07 03:12:58;;;;;;;0.93;0.75;;;24.20;72.70;;;;;;4965729;28;95263;-63
2022/03/07 03:15:29;;;;;;;1.83;0.68;;;24.20;71.90;;;;;;4959213;28;95329;-69
2022/03/07 03:18:01;;;;;;;2.13;0.90;;;24.30;71.70;;;;;;4943314;28;95831;-67
2022/03/07 03:20:31;;;;;;;;;;;24.30;71.90;;;;;;4965708;28;96376;-65
2022/03/07 03:23:01;;;;;;;2.47;1.10;;;24.40;71.80;;;;;;4967013;28;95653;-65
2022/03/07 03:25:31;;;;;;;1.77;0.75;;;24.50;71.70;;;;;;4965724;28;95806;-65
2022/03/07 03:28:03;;;;;;;0.95;0.73;;;24.50;71.40;;;;;;4966662;28;95873;-64
2022/03/07 03:30:36;;;;;;;0.80;0.80;;;24.60;71.40;;;;;;4949533;28;100572;-67
2022/03/07 03:33:07;;;;;;;1.67;0.68;;;24.70;71.30;;;;;;4964342;28;96010;-65
2022/03/07 03:35:38;;;;;;;3.05;0.60;;;24.80;71.30;;;;;;4963742;28;95296;-61
2022/03/07 03:38:09;;;;;;;2.30;0.50;;;24.90;71.20;;;;;;4964770;28;95806;-63
2022/03/07 03:40:40;;;;;;;;;;;25.00;71.20;;;;;;4964945;28;95876;-63
2022/03/07 03:43:11;;;;;;;1.90;0.80;;;25.10;71.20;;;;;;4965314;28;95831;-62
2022/03/07 03:45:42;;;;;;;0.70;0.70;;;25.10;70.90;;;;;;4957806;28;95849;-63
2022/03/07 03:48:13;;;;;;;0.80;0.47;;;25.20;70.70;;;;;;4965520;28;95807;-62
2022/03/07 03:50:43;;;;;;;0.85;0.50;;;25.20;70.50;;;;;;4964205;28;95796;-66
2022/03/07 03:53:15;;;;;;;2.13;0.95;;;25.30;70.50;;;;;;4962611;28;95981;-62
2022/03/07 03:55:45;;;;;;;;;;;25.40;70.40;;;;;;4966394;28;95295;-66
2022/03/07 03:58:18;;;;;;;0.90;0.80;;;25.40;70.20;;;;;;4967514;28;96021;-68
2022/03/07 04:00:48;;;;;;;0.88;0.50;;;25.50;70.20;;;;;;4956094;28;95857;-70
2022/03/07 04:03:18;;;;;;;2.20;0.70;;;25.50;70.10;;;;;;4967325;28;95979;-60
2022/03/07 04:05:49;;;;;;;1.65;0.40;;;25.60;69.90;;;;;;4968789;28;95274;-63
2022/03/07 04:08:20;;;;;;;1.38;0.93;;;25.60;70.20;;;;;;4966226;28;95879;-71
2022/03/07 04:10:50;;;;;;;1.38;0.52;;;25.70;70.10;;;;;;4954355;28;96016;-65
2022/03/07 04:13:23;;;;;;;1.15;0.95;;;25.70;69.80;;;;;;4969467;28;95743;-69
2022/03/07 04:15:54;;;;;;;0.75;0.60;;;25.80;69.80;;;;;;4975646;28;95835;-64
2022/03/07 04:18:27;;;;;;;1.25;0.60;;;25.90;69.70;;;;;;4966703;28;96267;-67
2022/03/07 04:20:57;;;;;;;0.75;0.60;;;26.00;69.60;;;;;;4969131;28;95857;-67
2022/03/07 04:23:28;;;;;;;2.78;0.80;;;26.00;69.50;;;;;;4969973;28;95907;-63
2022/03/07 04:26:00;;;;;;;3.25;0.90;;;26.00;66.40;;;;;;4971215;28;95722;-68
2022/03/07 04:28:30;;;;;;;2.10;0.90;;;25.90;66.40;;;;;;4966448;28;99826;-69
2022/03/07 04:31:00;;;;;;;1.52;0.90;;;25.80;67.40;;;;;;4954538;28;96469;-67
2022/03/07 04:33:30;;;;;;;3.58;0.80;;;25.70;67.50;;;;;;4973274;28;96439;-67
2022/03/07 04:36:01;;;;;;;1.75;0.80;;;25.70;67.20;;;;;;4988079;28;95883;-66
2022/03/07 04:38:34;;;;;;;2.00;0.70;;;25.60;67.10;;;;;;4973651;28;95576;-68
2022/03/07 04:41:05;;;;;;;2.38;1.00;;;25.60;66.10;;;;;;4971440;28;96558;-70
2022/03/07 04:43:36;;;;;;;1.67;0.85;;;25.60;66.20;;;;;;4973920;28;96007;-70
2022/03/07 04:46:11;;;;;;;1.92;0.73;;;25.40;61.00;;;;;;4964961;28;96152;-70
2022/03/07 04:48:45;;;;;;;1.33;0.60;;;25.20;60.30;;;;;;4971381;28;95398;-67
2022/03/07 04:51:15;;;;;;;2.38;0.90;;;24.90;59.70;;;;;;4965102;28;95738;-71
2022/03/07 04:53:46;;;;;;;1.48;0.80;;;24.90;59.00;;;;;;4974148;28;96111;-71
2022/03/07 04:56:20;;;;;;;1.63;1.02;;;24.70;58.40;;;;;;4976708;28;95315;-70
2022/03/07 04:58:50;;;;;;;1.52;0.70;;;24.60;57.90;;;;;;4973586;28;96428;-71
2022/03/07 05:01:20;;;;;;;0.52;0.52;;;24.50;57.60;;;;;;4966254;28;96037;-72
2022/03/07 05:03:50;;;;;;;2.25;1.17;;;24.50;57.10;;;;;;4973498;28;95307;-70
2022/03/07 05:06:20;;;;;;;2.17;0.85;;;24.40;56.70;;;;;;4985605;28;95441;-67
2022/03/07 05:08:51;;;;;;;1.80;0.85;;;24.40;56.50;;;;;;4972827;28;95788;-65
2022/03/07 05:11:21;;;;;;;;;;;24.40;57.50;;;;;;4971092;28;96450;-62
2022/03/07 05:13:52;;;;;;;0.88;0.70;;;24.70;58.40;;;;;;4972371;28;95940;-67
2022/03/07 05:16:23;;;;;;;1.60;0.57;;;24.90;58.90;;;;;;4963706;28;98118;-68
2022/03/07 05:18:55;;;;;;;2.35;0.75;;;24.90;59.30;;;;;;4972623;28;95690;-63
2022/03/07 05:21:26;;;;;;;1.65;0.55;;;25.10;59.70;;;;;;4972871;28;95722;-68
2022/03/07 05:23:58;;;;;;;2.05;0.68;;;25.20;61.40;;;;;;4967102;28;95776;-72
2022/03/07 05:26:29;;;;;;;1.63;0.73;;;25.20;58.80;;;;;;4980714;28;95611;-72
2022/03/07 05:29:00;;;;;;;;;;;24.80;55.80;;;;;;4971241;28;96281;-73
2022/03/07 05:31:30;;;;;;;1.13;0.57;;;24.50;56.10;;;;;;4967471;28;98964;-72
2022/03/07 05:34:01;;;;;;;2.90;0.68;;;24.30;55.60;;;;;;4972288;28;95289;-68
2022/03/07 05:36:32;;;;;;;0.90;0.90;;;24.20;56.90;;;;;;4972763;28;95938;-70
2022/03/07 05:39:05;;;;;;;0.93;0.70;;;24.40;58.60;;;;;;4972625;28;98060;-68
2022/03/07 05:41:36;;;;;;;0.40;0.40;;;24.50;57.10;;;;;;4969886;28;95853;-71
2022/03/07 05:44:07;;;;;;;2.30;0.70;;;24.50;57.30;;;;;;4973048;28;95961;-69
2022/03/07 05:46:38;;;;;;;;;;;24.60;58.50;;;;;;4967471;28;96437;-67
2022/03/07 05:49:10;;;;;;;0.82;0.73;;;24.60;57.50;;;;;;4974918;28;96889;-68
2022/03/07 05:51:43;;;;;;;1.17;0.38;;;24.60;56.50;;;;;;4973633;28;95990;-69
2022/03/07 05:54:14;;;;;;;0.98;0.80;;;24.60;56.50;;;;;;4968906;28;95855;-66
2022/03/07 05:56:45;;;;;;;0.60;0.60;;;24.60;58.60;;;;;;4968274;28;95725;-66
2022/03/07 05:59:18;;;;;;;1.63;0.75;;;24.60;54.00;;;;;;4971416;28;95615;-67
2022/03/07 06:01:48;;;;;;;0.60;0.60;;;24.60;58.10;;;;;;4965029;28;99638;-68
2022/03/07 06:04:18;;;;;;;0.60;0.60;;;24.50;56.70;;;;;;4971451;28;96116;-67
2022/03/07 06:06:48;;;;;;;1.83;0.80;;;24.40;57.00;;;;;;4971180;28;95930;-65
2022/03/07 06:09:19;;;;;;;1.52;0.85;;;24.40;56.70;;;;;;4972156;28;95919;-65
2022/03/07 06:11:50;;;;;;;0.70;0.60;;;24.40;56.30;;;;;;4971364;28;95717;-69
2022/03/07 06:14:21;;;;;;;;;;;24.40;58.10;;;;;;4970865;28;97509;-66
2022/03/07 06:16:51;;;;;;;1.55;1.30;;;24.30;57.00;;;;;;4966898;28;96772;-63
2022/03/07 06:19:22;;;;;;;2.92;1.35;;;24.30;57.10;;;;;;4973425;28;95809;-68
2022/03/07 06:21:51;;;;;;;2.13;1.33;;;24.30;57.00;;;;;;4970517;28;95573;-70
2022/03/07 06:24:21;;;;;;;2.25;1.35;;;24.30;56.20;;;;;;4965528;28;95565;-69
2022/03/07 06:26:53;;;;;;;1.83;1.63;;;24.20;55.70;;;;;;4966173;28;95325;-68
2022/03/07 06:29:24;;;;;;;;;;;24.10;55.20;;;;;;4971075;28;95565;-69
2022/03/07 06:31:58;;;;;;;3.50;1.55;;;24.00;57.80;;;;;;4960816;28;95998;-70
2022/03/07 06:34:31;;;;;;;3.58;1.35;;;24.00;52.40;;;;;;4961263;28;95763;-70
2022/03/07 06:37:03;;;;;;;2.47;1.58;;;23.80;55.70;;;;;;4966359;28;95336;-70
2022/03/07 06:39:34;;;;;;;3.33;1.67;;;23.80;56.10;;;;;;4964947;28;95938;-62
2022/03/07 06:42:05;;;;;;;2.78;1.67;;;23.80;59.10;;;;;;4954903;28;95878;-70
2022/03/07 06:44:40;;;;;;;1.50;1.27;;;23.80;58.60;;;;;;4965657;28;95937;-61
2022/03/07 06:47:13;;;;;;;2.72;1.20;;;23.70;60.80;;;;;;4958954;28;97530;-66
2022/03/07 06:49:45;;;;;;;1.92;1.13;;;23.70;60.00;;;;;;4965498;28;95315;-60
2022/03/07 06:52:16;;;;;;;4.57;1.25;;;23.80;61.30;;;;;;4966510;28;95667;-62
2022/03/07 06:54:47;;;;;;;3.20;1.42;;;23.80;59.80;;;;;;4962164;28;97620;-65
2022/03/07 06:57:21;;;;;;;3.57;1.20;;;23.90;59.70;;;;;;4954162;28;95953;-65
2022/03/07 06:59:51;;;;;;;2.00;1.35;;;23.70;59.40;;;;;;4964984;28;95953;-66
2022/03/07 07:02:21;;;;;;;1.95;1.55;;;23.70;61.50;;;;;;4957383;28;96273;-66
2022/03/07 07:04:51;;;;;;;6.40;3.95;;;23.70;59.90;;;;;;4964748;28;96046;-63
2022/03/07 07:07:21;;;;;;;8.70;5.25;;;23.60;61.80;;;;;;4962111;28;95904;-64
2022/03/07 07:09:52;;;;;;;5.18;3.35;;;23.60;60.60;;;;;;4950983;28;95785;-63
2022/03/07 07:12:24;;;;;;;7.38;2.80;;;23.60;65.10;;;;;;4952014;28;97082;-63
2022/03/07 07:14:55;;;;;;;5.75;3.70;;;23.50;63.80;;;;;;4964078;28;95330;-64
2022/03/07 07:17:26;;;;;;;7.35;2.85;;;23.50;61.70;;;;;;4952643;28;95873;-63
2022/03/07 07:19:57;;;;;;;8.55;3.10;;;23.50;65.20;;;;;;4965005;28;95755;-63
2022/03/07 07:22:27;;;;;;;16.92;7.78;;;23.50;64.70;;;;;;4964552;28;95990;-64
2022/03/07 07:25:01;;;;;;;35.90;21.05;;;23.50;62.00;;;;;;4960429;28;95938;-64
2022/03/07 07:27:32;;;;;;;43.70;35.45;;;23.50;62.90;;;;;;4961779;28;95827;-62
2022/03/07 07:30:07;;;;;;;40.63;29.40;;;23.50;62.90;;;;;;4954094;28;101198;-62
2022/03/07 07:32:39;;;;;;;32.13;23.25;;;23.40;64.70;;;;;;4961698;28;95857;-62
2022/03/07 07:35:10;;;;;;;36.38;25.90;;;23.40;66.10;;;;;;4964042;28;95610;-62
2022/03/07 07:37:41;;;;;;;35.67;26.98;;;23.40;65.70;;;;;;4967062;28;95631;-63
2022/03/07 07:40:12;;;;;;;;;;;23.40;65.80;;;;;;4959644;28;95506;-63
2022/03/07 07:42:43;;;;;;;25.80;18.70;;;23.30;65.10;;;;;;4968346;28;96305;-63
2022/03/07 07:45:15;;;;;;;30.63;20.55;;;23.30;66.80;;;;;;4959128;28;95821;-63
2022/03/07 07:47:45;;;;;;;27.70;20.50;;;23.30;66.60;;;;;;4967251;28;98804;-65
2022/03/07 07:50:15;;;;;;;28.57;19.63;;;23.30;66.50;;;;;;4967706;28;95681;-67
2022/03/07 07:52:47;;;;;;;27.48;20.05;;;23.30;67.30;;;;;;4967978;28;96552;-63
2022/03/07 07:55:18;;;;;;;24.52;19.45;;;23.20;66.50;;;;;;4981414;28;96912;-62
2022/03/07 07:57:48;;;;;;;24.25;16.85;;;23.30;67.10;;;;;;4982964;28;95706;-63
2022/03/07 08:00:20;;;;;;;24.40;17.98;;;23.20;66.40;;;;;;4959403;28;96327;-63
2022/03/07 08:02:51;;;;;;;22.05;18.00;;;23.10;66.20;;;;;;4947777;28;102539;-69
2022/03/07 08:05:22;;;;;;;19.58;14.80;;;23.10;66.70;;;;;;4967019;28;95907;-68
2022/03/07 08:07:54;;;;;;;16.25;12.07;;;23.00;67.80;;;;;;4981897;28;95743;-63
2022/03/07 08:10:24;;;;;;;13.75;7.88;;;22.90;69.10;;;;;;4967946;28;95782;-68
2022/03/07 08:12:55;;;;;;;;;;;22.80;70.30;;;;;;4967648;28;95935;-62
2022/03/07 08:15:29;;;;;;;12.80;8.83;;;22.80;70.40;;;;;;4960970;28;95650;-68
2022/03/07 08:18:00;;;;;;;9.00;4.97;;;22.80;70.80;;;;;;4962969;28;95588;-63
2022/03/07 08:20:31;;;;;;;;;;;22.70;72.40;;;;;;4997802;28;95787;-63
2022/03/07 08:23:04;;;;;;;11.32;7.00;;;22.70;72.10;;;;;;4968121;28;96779;-63
2022/03/07 08:25:34;;;;;;;10.25;6.00;;;22.70;72.40;;;;;;4966908;28;95954;-63
2022/03/07 08:28:07;;;;;;;7.40;3.75;;;22.70;72.60;;;;;;4961011;28;95973;-63
2022/03/07 08:30:37;;;;;;;6.53;2.70;;;22.60;73.20;;;;;;4948405;28;96131;-63
2022/03/07 08:33:08;;;;;;;9.85;4.57;;;22.60;73.80;;;;;;4967619;28;96905;-68
2022/03/07 08:35:41;;;;;;;;;;;22.50;73.70;;;;;;4964353;28;95681;-63
2022/03/07 08:38:13;;;;;;;6.95;3.42;;;22.60;73.60;;;;;;4959287;28;96141;-67
2022/03/07 08:40:44;;;;;;;7.55;3.30;;;22.50;74.20;;;;;;4964805;28;95837;-67
2022/03/07 08:43:16;;;;;;;5.32;2.63;;;22.60;73.80;;;;;;4964542;28;96585;-67
2022/03/07 08:45:47;;;;;;;6.43;3.08;;;22.60;74.20;;;;;;4958208;28;95930;-63
2022/03/07 08:48:25;;;;;;;9.85;2.17;;;22.50;74.00;;;;;;4965595;28;95858;-63
2022/03/07 08:50:55;;;;;;;8.23;2.83;;;22.50;74.20;;;;;;4965696;28;95950;-63
2022/03/07 08:53:26;;;;;;;8.50;2.60;;;22.50;74.50;;;;;;4964210;28;96038;-63
2022/03/07 08:55:57;;;;;;;;;;;22.30;75.10;;;;;;4965353;28;96048;-66
2022/03/07 08:58:47;;;;;;;7.38;2.15;;;22.10;75.80;;;;;;4966389;28;95709;-63
2022/03/07 09:01:18;;;;;;;9.73;2.30;;;22.00;76.50;;;;;;4958955;28;95770;-62
2022/03/07 09:03:48;;;;;;;9.30;2.72;;;21.80;77.20;;;;;;4961846;28;96464;-62
2022/03/07 09:06:19;;;;;;;6.40;2.50;;;21.60;77.70;;;;;;4966870;28;95725;-62
2022/03/07 09:08:51;;;;;;;11.82;2.17;;;21.40;78.70;;;;;;4966930;28;95795;-63
2022/03/07 09:11:25;;;;;;;5.13;2.00;;;21.30;74.80;;;;;;4965200;28;96242;-62
2022/03/07 09:13:57;;;;;;;9.68;3.08;;;21.20;80.00;;;;;;4967223;28;96456;-64
2022/03/07 09:16:30;;;;;;;6.28;1.80;;;21.20;80.30;;;;;;4958645;28;98601;-63
2022/03/07 09:19:02;;;;;;;6.43;1.73;;;21.10;80.50;;;;;;4966678;28;95480;-65
2022/03/07 09:21:32;;;;;;;4.32;1.88;;;21.10;81.00;;;;;;4968016;28;95368;-66
2022/03/07 09:24:03;;;;;;;10.48;1.92;;;21.10;80.40;;;;;;4968642;28;95903;-61
2022/03/07 09:26:35;;;;;;;9.68;1.83;;;21.10;81.00;;;;;;4966268;28;95471;-60
2022/03/07 09:29:10;;;;;;;10.10;2.20;;;21.20;80.30;;;;;;4960309;28;95894;-67
2022/03/07 09:31:41;;;;;;;5.85;2.03;;;21.10;80.50;;;;;;4988925;28;95954;-60
2022/03/07 09:34:14;;;;;;;9.63;2.53;;;20.90;81.30;;;;;;4967612;28;96314;-61
2022/03/07 09:36:45;;;;;;;4.95;1.90;;;21.00;80.80;;;;;;4967181;28;95893;-60
2022/03/07 09:39:16;;;;;;;11.40;2.97;;;21.10;80.90;;;;;;4966374;28;96075;-66
2022/03/07 09:41:47;;;;;;;8.43;2.13;;;21.00;80.60;;;;;;4967370;28;95742;-63
2022/03/07 09:44:18;;;;;;;6.53;1.90;;;21.00;80.80;;;;;;4997207;28;96628;-68
2022/03/07 09:46:51;;;;;;;9.10;2.47;;;21.00;80.90;;;;;;4960436;28;95948;-69
2022/03/07 09:49:21;;;;;;;8.70;2.17;;;21.00;81.10;;;;;;4944219;28;96080;-69
2022/03/07 09:51:53;;;;;;;10.98;2.45;;;20.90;81.70;;;;;;4966761;28;95699;-67
2022/03/07 09:54:24;;;;;;;8.90;2.50;;;20.70;81.50;;;;;;4982609;28;95828;-59
2022/03/07 09:56:56;;;;;;;9.77;1.88;;;20.50;82.80;;;;;;4967003;28;95366;-65
2022/03/07 09:59:27;;;;;;;7.28;2.38;;;20.50;82.40;;;;;;4966239;28;97724;-68
2022/03/07 10:02:00;;;;;;;11.55;2.58;;;20.40;82.90;;;;;;4957878;28;96173;-59
2022/03/07 10:04:31;;;;;;;7.28;1.90;;;20.40;83.80;;;;;;4967102;28;96845;-66
2022/03/07 10:07:04;;;;;;;8.75;2.00;;;20.30;83.70;;;;;;4967059;28;95485;-60
2022/03/07 10:09:36;;;;;;;12.00;2.58;;;20.20;83.70;;;;;;4965413;28;95807;-67
2022/03/07 10:12:08;;;;;;;8.15;1.95;;;20.00;84.10;;;;;;4966212;28;95201;-70
2022/03/07 10:14:45;;;;;;;9.40;1.95;;;19.90;84.80;;;;;;4965840;28;95885;-63
2022/03/07 10:17:31;;;;;;;10.38;3.13;;;20.20;84.90;;;;;;4958521;28;95833;-68
2022/03/07 10:20:06;;;;;;;5.90;2.15;;;20.60;83.80;;;;;;4966348;28;95652;-62
2022/03/07 10:22:48;;;;;;;5.72;2.08;;;21.00;82.30;;;;;;4968202;28;95512;-71
2022/03/07 10:25:28;;;;;;;11.85;2.85;;;21.20;81.10;;;;;;4966681;28;95868;-60
2022/03/07 10:28:02;;;;;;;10.65;2.55;;;21.20;80.50;;;;;;4962613;28;97103;-65
2022/03/07 10:30:35;;;;;;;9.93;2.42;;;21.30;80.40;;;;;;4981592;28;96785;-71
2022/03/07 10:33:16;;;;;;;13.15;2.20;;;21.20;80.10;;;;;;4966305;28;95738;-71
2022/03/07 10:35:50;;;;;;;;;;;21.20;80.50;;;;;;4966565;28;96287;-62
2022/03/07 10:38:22;;;;;;;7.00;2.38;;;21.20;80.20;;;;;;4966003;28;95759;-66
2022/03/07 10:40:56;;;;;;;8.82;2.25;;;21.20;79.90;;;;;;4965256;28;95780;-63
2022/03/07 10:43:28;;;;;;;7.00;2.33;;;21.20;79.90;;;;;;4964879;28;95833;-71
2022/03/07 10:46:02;;;;;;;9.90;2.25;;;21.20;80.10;;;;;;4957208;28;96678;-71
2022/03/07 10:48:42;;;;;;;;;;;21.20;80.00;;;;;;4962180;28;96115;-67
2022/03/07 10:51:20;;;;;;;13.35;2.90;;;21.20;80.00;;;;;;4997355;28;95852;-66
2022/03/07 10:53:52;;;;;;;12.32;2.53;;;21.30;79.70;;;;;;4966835;28;95924;-60
2022/03/07 10:56:24;;;;;;;10.80;2.72;;;21.30;79.60;;;;;;4966009;28;95846;-63
2022/03/07 10:58:56;;;;;;;9.20;2.40;;;21.30;75.40;;;;;;4966354;28;95629;-65
2022/03/07 11:01:33;;;;;;;7.95;2.22;;;21.20;78.80;;;;;;4958548;28;95934;-68
2022/03/07 11:04:03;;;;;;;12.00;2.88;;;20.90;80.10;;;;;;4960475;28;95390;-62
2022/03/07 11:06:36;;;;;;;16.92;3.38;;;20.70;81.50;;;;;;4965417;28;96049;-62
2022/03/07 11:09:07;;;;;;;8.23;2.22;;;20.80;81.30;;;;;;4963460;28;95368;-61
2022/03/07 11:11:40;;;;;;;9.02;2.58;;;20.90;81.10;;;;;;4966186;28;96105;-68
2022/03/07 11:14:13;;;;;;;11.65;2.95;;;21.00;76.20;;;;;;4968191;28;96047;-60
2022/03/07 11:16:56;;;;;;;8.45;2.63;;;21.00;81.00;;;;;;4950167;28;98924;-65
2022/03/07 11:19:28;;;;;;;11.27;2.42;;;21.00;80.80;;;;;;4969117;28;95714;-59
2022/03/07 11:21:58;;;;;;;10.02;2.70;;;21.10;80.50;;;;;;4970542;28;95789;-60
2022/03/07 11:24:30;;;;;;;8.63;2.63;;;21.00;80.40;;;;;;4965699;28;95464;-61
2022/03/07 11:27:02;;;;;;;10.38;2.92;;;21.00;80.20;;;;;;4970176;28;96206;-69
2022/03/07 11:29:35;;;;;;;12.13;2.63;;;21.00;80.40;;;;;;4959326;28;96218;-72
2022/03/07 11:32:08;;;;;;;11.55;3.30;;;21.00;80.30;;;;;;4959184;28;95969;-71
2022/03/07 11:34:51;;;;;;;11.27;3.20;;;20.90;80.70;;;;;;4968518;28;97148;-66
2022/03/07 11:37:24;;;;;;;5.60;3.10;;;20.90;81.00;;;;;;4968728;28;97109;-59
2022/03/07 11:39:58;;;;;;;9.13;3.50;;;21.10;80.60;;;;;;4964868;28;95881;-73
2022/03/07 11:42:37;;;;;;;12.43;3.95;;;21.20;80.30;;;;;;4967155;28;95477;-70
2022/03/07 11:45:16;;;;;;;7.05;3.90;;;21.10;80.30;;;;;;4962335;28;95370;-70
2022/03/07 11:47:50;;;;;;;6.97;3.58;;;21.20;80.30;;;;;;4969171;28;102873;-68
2022/03/07 11:50:22;;;;;;;10.25;3.83;;;21.30;79.90;;;;;;4968982;28;96211;-60
2022/03/07 11:53:03;;;;;;;9.93;4.10;;;21.40;79.20;;;;;;4980159;28;96104;-67
2022/03/07 11:55:44;;;;;;;11.77;4.35;;;21.30;79.10;;;;;;4969214;28;95805;-62
2022/03/07 11:58:25;;;;;;;9.68;4.43;;;21.40;79.20;;;;;;4964862;28;96364;-66
2022/03/07 12:01:03;;;;;;;;;;;21.10;80.00;;;;;;4957677;28;95406;-61
2022/03/07 12:03:35;;;;;;;6.88;4.10;;;21.30;74.70;;;;;;4970048;28;96033;-59
2022/03/07 12:06:14;;;;;;;7.25;4.32;;;21.20;80.00;;;;;;4969210;28;95745;-68
2022/03/07 12:08:49;;;;;;;7.38;4.47;;;20.90;80.60;;;;;;4964312;28;95935;-58
2022/03/07 12:11:28;;;;;;;10.70;4.90;;;20.80;81.30;;;;;;4968313;28;95790;-61
2022/03/07 12:14:05;;;;;;;10.32;5.75;;;20.70;76.80;;;;;;4961795;28;96977;-67
2022/03/07 12:16:41;;;;;;;7.78;5.25;;;20.60;81.40;;;;;;4960210;28;96127;-61
2022/03/07 12:19:19;;;;;;;10.25;5.70;;;20.50;82.20;;;;;;4965846;28;96473;-66
2022/03/07 12:21:50;;;;;;;10.15;6.15;;;20.50;82.40;;;;;;4967612;28;95851;-59
2022/03/07 12:24:22;;;;;;;10.50;6.45;;;20.30;82.30;;;;;;4967229;28;95824;-61
2022/03/07 12:26:56;;;;;;;11.98;6.82;;;20.10;83.70;;;;;;4968769;28;96074;-61
2022/03/07 12:29:28;;;;;;;9.85;6.80;;;20.10;83.40;;;;;;4959384;28;96405;-65
2022/03/07 12:32:03;;;;;;;10.18;6.82;;;20.00;84.60;;;;;;4954467;28;96008;-60
2022/03/07 12:34:39;;;;;;;13.30;7.32;;;19.90;83.50;;;;;;4967678;28;96109;-63
2022/03/07 12:37:20;;;;;;;9.30;6.40;;;19.90;84.40;;;;;;4967488;28;95945;-60
2022/03/07 12:39:58;;;;;;;17.10;7.93;;;19.60;85.60;;;;;;4967335;28;96540;-66
2022/03/07 12:42:31;;;;;;;9.70;6.78;;;19.70;85.20;;;;;;4981185;28;96570;-64
2022/03/07 12:45:04;;;;;;;14.82;8.23;;;19.50;85.70;;;;;;4967550;28;95721;-61
2022/03/07 12:47:38;;;;;;;9.93;7.43;;;19.60;85.90;;;;;;4977895;28;95898;-63
2022/03/07 12:50:11;;;;;;;11.55;7.82;;;19.50;85.80;;;;;;4966030;28;97160;-61
2022/03/07 12:52:43;;;;;;;10.60;7.22;;;19.50;85.90;;;;;;4966871;28;97606;-60
2022/03/07 12:55:16;;;;;;;11.77;7.20;;;19.50;86.10;;;;;;4967464;28;96415;-60
2022/03/07 12:57:46;;;;;;;13.60;8.20;;;19.60;85.60;;;;;;4968509;28;95841;-63
2022/03/07 13:00:18;;;;;;;10.48;8.30;;;19.50;86.00;;;;;;4973735;28;98357;-62
2022/03/07 13:02:53;;;;;;;11.52;7.68;;;19.50;85.90;;;;;;4966003;28;97968;-62
2022/03/07 13:05:26;;;;;;;10.57;8.52;;;19.10;87.00;;;;;;4965304;28;96249;-61
2022/03/07 13:08:04;;;;;;;10.52;7.90;;;18.80;88.60;;;;;;4967750;28;95712;-61
2022/03/07 13:10:34;;;;;;;14.38;9.05;;;18.60;89.40;;;;;;4966328;28;96468;-62
2022/03/07 13:13:06;;;;;;;14.52;7.90;;;19.00;89.40;;;;;;4966131;28;95881;-61
2022/03/07 13:15:42;;;;;;;;;;;19.50;87.80;;;;;;4960423;28;98727;-63